Portada
METAR-TAF:

METAR-TAF

Aeroports :

Narathiwat, Tailàndia

latitud: 6-31-12N, longitud: 101-44-36E, altitud: 5 m

Observació

L'informe es va fer fa 2 hores i 37 minuts, a les 15:00 UTC
Vent 3 kt del Sud-Oest
Temperatura 27°C
Humitat 89%
Pressió 1010 hPa
Visibilitat 10 km o més
Núvols disperses a una alçada de 2000 ft

METAR: VTSC 311500Z 22003KT 9999 SCT020 27/25 Q1010 NOSIG

Hora: 00:37 (17:37 UTC)

Pronòstic

L'informe es va fer fa 6 hores i 37 minuts, a les 11:00 UTC
Pronòstic vàlid del 31 a les 12 UTC al 01 a les 12 UTC
Vent 3 kt del Sud
Visibilitat 10 km o més
Escasses núvols a una alçada de 2000 ft
Evolucionant progressivament
l' 01 a les 03 UTC al 01 a les 05 UTC
Vent 10 kt del Est

TAF: VTSC 311100Z 3112/0112 19003KT 9999 FEW020 BECMG 0103/0105 08010KT

Observacions i pronòstics meteorològics de més de 4000 aeroports (METAR i TAF).

Les estacions disponibles són els punts grocs i vermells al mapa.

Posi el ratolí al punt desitjat per veure el nom de l'estació.

Feu clic per veure les observacions i els pronòstics meteorològics.

Per canviar el mapa: feu clic els botons verds amb una creu de color negre per apropar; al botó verd amb un guió per allunyar la imatge; o en les fletxes verdes per a mapes adjacents.


METAR-TAF: